sensor_id;sensor_type;location;lat;lon;timestamp;P1;durP1;ratioP1;P2;durP2;ratioP2
33926;SDS011;20485;50.992;5.550;2023-06-14T00:00:41;8.90;;;5.35;;
33926;SDS011;20485;50.992;5.550;2023-06-14T00:03:08;11.48;;;6.22;;
33926;SDS011;20485;50.992;5.550;2023-06-14T00:05:35;7.68;;;5.40;;
33926;SDS011;20485;50.992;5.550;2023-06-14T00:08:06;8.25;;;5.28;;
33926;SDS011;20485;50.992;5.550;2023-06-14T00:10:33;7.85;;;5.07;;
33926;SDS011;20485;50.992;5.550;2023-06-14T00:13:03;10.73;;;5.20;;
33926;SDS011;20485;50.992;5.550;2023-06-14T00:15:30;7.65;;;4.88;;
33926;SDS011;20485;50.992;5.550;2023-06-14T00:17:56;8.70;;;4.90;;
33926;SDS011;20485;50.992;5.550;2023-06-14T00:20:26;12.75;;;5.28;;
33926;SDS011;20485;50.992;5.550;2023-06-14T00:22:56;11.52;;;5.35;;
33926;SDS011;20485;50.992;5.550;2023-06-14T00:25:25;12.93;;;5.43;;
33926;SDS011;20485;50.992;5.550;2023-06-14T00:27:51;10.70;;;5.35;;
33926;SDS011;20485;50.992;5.550;2023-06-14T00:30:18;13.27;;;5.40;;
33926;SDS011;20485;50.992;5.550;2023-06-14T00:32:44;9.57;;;5.40;;
33926;SDS011;20485;50.992;5.550;2023-06-14T00:35:10;9.38;;;5.50;;
33926;SDS011;20485;50.992;5.550;2023-06-14T00:37:36;6.75;;;5.07;;
33926;SDS011;20485;50.992;5.550;2023-06-14T00:40:03;9.63;;;5.60;;
33926;SDS011;20485;50.992;5.550;2023-06-14T00:42:29;9.20;;;5.65;;
33926;SDS011;20485;50.992;5.550;2023-06-14T00:44:56;10.23;;;5.60;;
33926;SDS011;20485;50.992;5.550;2023-06-14T00:47:22;9.10;;;5.65;;
33926;SDS011;20485;50.992;5.550;2023-06-14T00:49:49;10.07;;;5.90;;
33926;SDS011;20485;50.992;5.550;2023-06-14T00:52:18;11.23;;;5.40;;
33926;SDS011;20485;50.992;5.550;2023-06-14T00:54:45;9.32;;;6.03;;
33926;SDS011;20485;50.992;5.550;2023-06-14T00:57:12;11.65;;;5.85;;
33926;SDS011;20485;50.992;5.550;2023-06-14T00:59:42;9.57;;;5.40;;
33926;SDS011;20485;50.992;5.550;2023-06-14T01:02:12;10.52;;;5.70;;
33926;SDS011;20485;50.992;5.550;2023-06-14T01:04:40;10.60;;;5.50;;
33926;SDS011;20485;50.992;5.550;2023-06-14T01:07:15;11.32;;;5.72;;
33926;SDS011;20485;50.992;5.550;2023-06-14T01:13:24;11.32;;;5.95;;
33926;SDS011;20485;50.992;5.550;2023-06-14T01:16:15;10.05;;;5.63;;
33926;SDS011;20485;50.992;5.550;2023-06-14T01:18:45;9.63;;;6.07;;
33926;SDS011;20485;50.992;5.550;2023-06-14T02:04:31;12.77;;;7.55;;
33926;SDS011;20485;50.992;5.550;2023-06-14T02:06:59;16.80;;;7.13;;
33926;SDS011;20485;50.992;5.550;2023-06-14T02:15:07;13.80;;;8.50;;
33926;SDS011;20485;50.992;5.550;2023-06-14T02:18:06;12.27;;;7.20;;
33926;SDS011;20485;50.992;5.550;2023-06-14T02:20:33;14.50;;;7.30;;
33926;SDS011;20485;50.992;5.550;2023-06-14T02:49:54;12.63;;;7.85;;
33926;SDS011;20485;50.992;5.550;2023-06-14T02:57:40;14.18;;;6.75;;
33926;SDS011;20485;50.992;5.550;2023-06-14T03:27:17;12.05;;;8.02;;
33926;SDS011;20485;50.992;5.550;2023-06-14T04:41:25;14.85;;;8.02;;
33926;SDS011;20485;50.992;5.550;2023-06-14T04:43:56;16.02;;;7.20;;
33926;SDS011;20485;50.992;5.550;2023-06-14T04:46:29;17.30;;;8.15;;
33926;SDS011;20485;50.992;5.550;2023-06-14T04:48:57;14.82;;;7.97;;
33926;SDS011;20485;50.992;5.550;2023-06-14T04:51:27;14.10;;;7.78;;
33926;SDS011;20485;50.992;5.550;2023-06-14T04:59:41;18.10;;;7.75;;
33926;SDS011;20485;50.992;5.550;2023-06-14T05:02:13;12.35;;;7.60;;
33926;SDS011;20485;50.992;5.550;2023-06-14T05:04:50;14.77;;;7.05;;
33926;SDS011;20485;50.992;5.550;2023-06-14T05:07:22;11.85;;;7.25;;
33926;SDS011;20485;50.992;5.550;2023-06-14T05:09:55;13.48;;;7.63;;
33926;SDS011;20485;50.992;5.550;2023-06-14T05:12:23;13.32;;;7.82;;
33926;SDS011;20485;50.992;5.550;2023-06-14T05:14:53;12.00;;;7.45;;
33926;SDS011;20485;50.992;5.550;2023-06-14T05:17:25;13.05;;;7.78;;
33926;SDS011;20485;50.992;5.550;2023-06-14T05:19:53;16.85;;;7.63;;
33926;SDS011;20485;50.992;5.550;2023-06-14T05:22:23;10.38;;;6.97;;
33926;SDS011;20485;50.992;5.550;2023-06-14T05:25:02;14.05;;;7.63;;
33926;SDS011;20485;50.992;5.550;2023-06-14T05:27:33;16.42;;;8.35;;
33926;SDS011;20485;50.992;5.550;2023-06-14T05:30:04;13.75;;;8.18;;
33926;SDS011;20485;50.992;5.550;2023-06-14T05:32:37;15.25;;;7.60;;
33926;SDS011;20485;50.992;5.550;2023-06-14T05:35:05;14.43;;;8.32;;
33926;SDS011;20485;50.992;5.550;2023-06-14T05:37:33;10.43;;;8.02;;
33926;SDS011;20485;50.992;5.550;2023-06-14T05:40:03;18.00;;;8.05;;
33926;SDS011;20485;50.992;5.550;2023-06-14T05:42:33;15.82;;;7.70;;
33926;SDS011;20485;50.992;5.550;2023-06-14T05:45:01;14.80;;;7.10;;
33926;SDS011;20485;50.992;5.550;2023-06-14T05:47:29;18.02;;;7.53;;
33926;SDS011;20485;50.992;5.550;2023-06-14T05:49:57;12.63;;;7.28;;
33926;SDS011;20485;50.992;5.550;2023-06-14T05:52:25;16.20;;;7.10;;
33926;SDS011;20485;50.992;5.550;2023-06-14T05:54:57;18.83;;;7.13;;
33926;SDS011;20485;50.992;5.550;2023-06-14T05:57:24;13.18;;;6.65;;
33926;SDS011;20485;50.992;5.550;2023-06-14T05:59:55;10.85;;;6.90;;
33926;SDS011;20485;50.992;5.550;2023-06-14T06:05:12;12.55;;;6.13;;
33926;SDS011;20485;50.992;5.550;2023-06-14T06:07:38;12.60;;;6.20;;
33926;SDS011;20485;50.992;5.550;2023-06-14T06:10:09;10.15;;;5.32;;
33926;SDS011;20485;50.992;5.550;2023-06-14T06:12:35;12.93;;;5.65;;
33926;SDS011;20485;50.992;5.550;2023-06-14T06:15:01;16.65;;;6.47;;
33926;SDS011;20485;50.992;5.550;2023-06-14T06:17:27;12.48;;;5.70;;
33926;SDS011;20485;50.992;5.550;2023-06-14T06:19:53;13.73;;;5.55;;
33926;SDS011;20485;50.992;5.550;2023-06-14T06:22:19;11.30;;;6.00;;
33926;SDS011;20485;50.992;5.550;2023-06-14T06:24:45;17.05;;;5.85;;
33926;SDS011;20485;50.992;5.550;2023-06-14T06:27:11;7.82;;;5.35;;
33926;SDS011;20485;50.992;5.550;2023-06-14T06:29:37;15.05;;;5.90;;
33926;SDS011;20485;50.992;5.550;2023-06-14T06:32:03;9.25;;;5.13;;
33926;SDS011;20485;50.992;5.550;2023-06-14T06:34:29;16.17;;;6.00;;
33926;SDS011;20485;50.992;5.550;2023-06-14T06:36:55;11.35;;;5.50;;
33926;SDS011;20485;50.992;5.550;2023-06-14T06:39:21;16.70;;;5.97;;
33926;SDS011;20485;50.992;5.550;2023-06-14T06:41:46;14.75;;;5.88;;
33926;SDS011;20485;50.992;5.550;2023-06-14T06:44:12;14.52;;;5.43;;
33926;SDS011;20485;50.992;5.550;2023-06-14T06:59:02;10.70;;;5.35;;
33926;SDS011;20485;50.992;5.550;2023-06-14T07:01:28;19.45;;;5.65;;
33926;SDS011;20485;50.992;5.550;2023-06-14T07:03:54;9.52;;;5.32;;
33926;SDS011;20485;50.992;5.550;2023-06-14T07:06:20;13.57;;;5.63;;
33926;SDS011;20485;50.992;5.550;2023-06-14T07:08:46;12.20;;;5.18;;
33926;SDS011;20485;50.992;5.550;2023-06-14T07:11:15;20.42;;;5.70;;
33926;SDS011;20485;50.992;5.550;2023-06-14T07:13:41;10.15;;;5.45;;
33926;SDS011;20485;50.992;5.550;2023-06-14T07:16:07;14.98;;;5.57;;
33926;SDS011;20485;50.992;5.550;2023-06-14T07:18:32;12.20;;;5.55;;
33926;SDS011;20485;50.992;5.550;2023-06-14T07:20:58;16.58;;;5.68;;
33926;SDS011;20485;50.992;5.550;2023-06-14T07:23:25;19.70;;;5.10;;
33926;SDS011;20485;50.992;5.550;2023-06-14T07:25:50;14.55;;;5.20;;
33926;SDS011;20485;50.992;5.550;2023-06-14T07:28:16;17.52;;;5.82;;
33926;SDS011;20485;50.992;5.550;2023-06-14T07:30:43;11.88;;;4.90;;
33926;SDS011;20485;50.992;5.550;2023-06-14T07:33:09;14.52;;;5.40;;
33926;SDS011;20485;50.992;5.550;2023-06-14T07:35:35;12.45;;;4.82;;
33926;SDS011;20485;50.992;5.550;2023-06-14T07:38:01;17.85;;;5.07;;
33926;SDS011;20485;50.992;5.550;2023-06-14T07:40:26;17.02;;;5.45;;
33926;SDS011;20485;50.992;5.550;2023-06-14T07:42:52;19.27;;;4.85;;
33926;SDS011;20485;50.992;5.550;2023-06-14T07:45:19;14.27;;;4.55;;
33926;SDS011;20485;50.992;5.550;2023-06-14T07:47:45;12.18;;;4.93;;
33926;SDS011;20485;50.992;5.550;2023-06-14T07:50:11;11.60;;;4.78;;
33926;SDS011;20485;50.992;5.550;2023-06-14T07:52:38;15.85;;;4.05;;
33926;SDS011;20485;50.992;5.550;2023-06-14T07:55:04;9.63;;;4.93;;
33926;SDS011;20485;50.992;5.550;2023-06-14T07:57:31;12.23;;;5.00;;
33926;SDS011;20485;50.992;5.550;2023-06-14T07:59:56;11.30;;;4.40;;
33926;SDS011;20485;50.992;5.550;2023-06-14T08:02:22;13.25;;;4.60;;
33926;SDS011;20485;50.992;5.550;2023-06-14T08:04:48;9.95;;;4.45;;
33926;SDS011;20485;50.992;5.550;2023-06-14T08:07:14;7.10;;;4.32;;
33926;SDS011;20485;50.992;5.550;2023-06-14T08:09:40;9.50;;;4.22;;
33926;SDS011;20485;50.992;5.550;2023-06-14T08:12:06;10.65;;;4.60;;
33926;SDS011;20485;50.992;5.550;2023-06-14T08:14:34;16.90;;;4.07;;
33926;SDS011;20485;50.992;5.550;2023-06-14T08:17:00;14.50;;;4.40;;
33926;SDS011;20485;50.992;5.550;2023-06-14T08:19:26;10.63;;;4.07;;
33926;SDS011;20485;50.992;5.550;2023-06-14T08:21:52;9.63;;;4.20;;
33926;SDS011;20485;50.992;5.550;2023-06-14T08:24:20;9.70;;;4.80;;
33926;SDS011;20485;50.992;5.550;2023-06-14T08:26:49;14.50;;;4.88;;
33926;SDS011;20485;50.992;5.550;2023-06-14T08:29:15;10.95;;;4.00;;
33926;SDS011;20485;50.992;5.550;2023-06-14T08:31:41;13.82;;;4.32;;
33926;SDS011;20485;50.992;5.550;2023-06-14T08:34:07;21.48;;;4.50;;
33926;SDS011;20485;50.992;5.550;2023-06-14T08:36:32;9.88;;;3.85;;
33926;SDS011;20485;50.992;5.550;2023-06-14T08:38:58;9.57;;;3.38;;
33926;SDS011;20485;50.992;5.550;2023-06-14T08:41:24;9.93;;;3.88;;
33926;SDS011;20485;50.992;5.550;2023-06-14T08:43:52;8.45;;;3.83;;
33926;SDS011;20485;50.992;5.550;2023-06-14T08:46:18;14.48;;;4.07;;
33926;SDS011;20485;50.992;5.550;2023-06-14T08:48:51;12.18;;;4.22;;
33926;SDS011;20485;50.992;5.550;2023-06-14T08:51:20;13.32;;;4.25;;
33926;SDS011;20485;50.992;5.550;2023-06-14T08:53:57;13.88;;;4.10;;
33926;SDS011;20485;50.992;5.550;2023-06-14T08:56:26;10.00;;;3.85;;
33926;SDS011;20485;50.992;5.550;2023-06-14T08:58:53;10.90;;;3.90;;
33926;SDS011;20485;50.992;5.550;2023-06-14T09:01:19;13.10;;;3.20;;
33926;SDS011;20485;50.992;5.550;2023-06-14T09:03:47;9.68;;;3.45;;
33926;SDS011;20485;50.992;5.550;2023-06-14T09:06:14;6.60;;;3.35;;
33926;SDS011;20485;50.992;5.550;2023-06-14T09:08:44;10.93;;;3.28;;
33926;SDS011;20485;50.992;5.550;2023-06-14T09:11:11;10.60;;;2.97;;
33926;SDS011;20485;50.992;5.550;2023-06-14T09:13:39;9.88;;;3.53;;
33926;SDS011;20485;50.992;5.550;2023-06-14T09:16:06;8.38;;;3.13;;
33926;SDS011;20485;50.992;5.550;2023-06-14T09:18:34;11.05;;;3.63;;
33926;SDS011;20485;50.992;5.550;2023-06-14T09:21:00;13.45;;;3.35;;
33926;SDS011;20485;50.992;5.550;2023-06-14T09:23:26;11.50;;;3.17;;
33926;SDS011;20485;50.992;5.550;2023-06-14T09:25:51;7.30;;;2.90;;
33926;SDS011;20485;50.992;5.550;2023-06-14T09:28:17;7.72;;;2.65;;
33926;SDS011;20485;50.992;5.550;2023-06-14T09:30:45;18.42;;;3.10;;
33926;SDS011;20485;50.992;5.550;2023-06-14T09:33:11;12.45;;;3.00;;
33926;SDS011;20485;50.992;5.550;2023-06-14T09:35:44;8.52;;;3.10;;
33926;SDS011;20485;50.992;5.550;2023-06-14T09:38:11;7.63;;;3.22;;
33926;SDS011;20485;50.992;5.550;2023-06-14T09:40:37;7.30;;;3.45;;
33926;SDS011;20485;50.992;5.550;2023-06-14T09:43:06;9.85;;;2.63;;
33926;SDS011;20485;50.992;5.550;2023-06-14T09:45:35;24.08;;;3.80;;
33926;SDS011;20485;50.992;5.550;2023-06-14T09:48:04;9.73;;;2.78;;
33926;SDS011;20485;50.992;5.550;2023-06-14T09:50:31;12.02;;;2.63;;
33926;SDS011;20485;50.992;5.550;2023-06-14T09:52:58;8.20;;;2.78;;
33926;SDS011;20485;50.992;5.550;2023-06-14T09:55:28;9.77;;;2.70;;
33926;SDS011;20485;50.992;5.550;2023-06-14T09:57:59;7.95;;;2.42;;
33926;SDS011;20485;50.992;5.550;2023-06-14T10:00:29;6.38;;;2.65;;
33926;SDS011;20485;50.992;5.550;2023-06-14T10:02:59;4.95;;;2.50;;
33926;SDS011;20485;50.992;5.550;2023-06-14T10:05:31;5.22;;;2.58;;
33926;SDS011;20485;50.992;5.550;2023-06-14T10:08:00;6.30;;;2.47;;
33926;SDS011;20485;50.992;5.550;2023-06-14T10:10:35;15.98;;;3.20;;
33926;SDS011;20485;50.992;5.550;2023-06-14T10:13:03;8.65;;;2.85;;
33926;SDS011;20485;50.992;5.550;2023-06-14T10:16:12;7.40;;;2.83;;
33926;SDS011;20485;50.992;5.550;2023-06-14T10:21:41;11.23;;;3.28;;
33926;SDS011;20485;50.992;5.550;2023-06-14T10:24:22;12.45;;;2.97;;
33926;SDS011;20485;50.992;5.550;2023-06-14T10:26:56;9.55;;;2.78;;
33926;SDS011;20485;50.992;5.550;2023-06-14T10:29:23;8.60;;;3.75;;
33926;SDS011;20485;50.992;5.550;2023-06-14T10:31:50;9.25;;;3.00;;
33926;SDS011;20485;50.992;5.550;2023-06-14T10:34:21;7.85;;;2.78;;
33926;SDS011;20485;50.992;5.550;2023-06-14T10:37:06;6.38;;;2.13;;
33926;SDS011;20485;50.992;5.550;2023-06-14T10:39:43;4.45;;;2.30;;
33926;SDS011;20485;50.992;5.550;2023-06-14T10:44:42;6.95;;;2.00;;
33926;SDS011;20485;50.992;5.550;2023-06-14T10:49:55;3.03;;;1.70;;
33926;SDS011;20485;50.992;5.550;2023-06-14T10:52:24;2.70;;;1.42;;
33926;SDS011;20485;50.992;5.550;2023-06-14T10:54:59;2.95;;;1.48;;
33926;SDS011;20485;50.992;5.550;2023-06-14T11:00:08;4.55;;;1.75;;
33926;SDS011;20485;50.992;5.550;2023-06-14T11:02:50;7.82;;;1.60;;
33926;SDS011;20485;50.992;5.550;2023-06-14T11:05:23;5.05;;;1.85;;
33926;SDS011;20485;50.992;5.550;2023-06-14T11:08:07;6.30;;;1.35;;
33926;SDS011;20485;50.992;5.550;2023-06-14T11:10:59;4.68;;;1.60;;
33926;SDS011;20485;50.992;5.550;2023-06-14T11:13:27;3.33;;;1.60;;
33926;SDS011;20485;50.992;5.550;2023-06-14T11:15:53;3.70;;;1.60;;
33926;SDS011;20485;50.992;5.550;2023-06-14T11:18:21;8.27;;;1.58;;
33926;SDS011;20485;50.992;5.550;2023-06-14T11:20:52;5.90;;;1.88;;
33926;SDS011;20485;50.992;5.550;2023-06-14T11:23:18;6.63;;;1.60;;
33926;SDS011;20485;50.992;5.550;2023-06-14T11:25:49;1.95;;;1.35;;
33926;SDS011;20485;50.992;5.550;2023-06-14T11:28:17;7.18;;;1.95;;
33926;SDS011;20485;50.992;5.550;2023-06-14T11:30:45;4.82;;;1.40;;
33926;SDS011;20485;50.992;5.550;2023-06-14T11:33:11;6.10;;;1.50;;
33926;SDS011;20485;50.992;5.550;2023-06-14T11:35:43;4.03;;;2.00;;
33926;SDS011;20485;50.992;5.550;2023-06-14T11:38:09;4.40;;;1.60;;
33926;SDS011;20485;50.992;5.550;2023-06-14T11:40:37;5.32;;;1.70;;
33926;SDS011;20485;50.992;5.550;2023-06-14T11:43:03;3.85;;;1.55;;
33926;SDS011;20485;50.992;5.550;2023-06-14T11:45:29;7.25;;;2.05;;
33926;SDS011;20485;50.992;5.550;2023-06-14T11:47:56;5.68;;;1.70;;
33926;SDS011;20485;50.992;5.550;2023-06-14T11:50:23;7.53;;;1.70;;
33926;SDS011;20485;50.992;5.550;2023-06-14T11:52:56;4.95;;;1.92;;
33926;SDS011;20485;50.992;5.550;2023-06-14T11:55:24;7.13;;;1.60;;
33926;SDS011;20485;50.992;5.550;2023-06-14T11:57:51;8.20;;;1.80;;
33926;SDS011;20485;50.992;5.550;2023-06-14T12:00:19;5.00;;;1.85;;
33926;SDS011;20485;50.992;5.550;2023-06-14T12:02:53;5.35;;;1.90;;
33926;SDS011;20485;50.992;5.550;2023-06-14T12:05:21;8.20;;;1.70;;
33926;SDS011;20485;50.992;5.550;2023-06-14T12:07:47;10.73;;;1.90;;
33926;SDS011;20485;50.992;5.550;2023-06-14T12:10:13;6.30;;;1.90;;
33926;SDS011;20485;50.992;5.550;2023-06-14T12:12:39;7.10;;;1.98;;
33926;SDS011;20485;50.992;5.550;2023-06-14T12:15:07;6.90;;;1.83;;
33926;SDS011;20485;50.992;5.550;2023-06-14T12:17:34;4.38;;;2.03;;
33926;SDS011;20485;50.992;5.550;2023-06-14T12:20:19;3.88;;;1.70;;
33926;SDS011;20485;50.992;5.550;2023-06-14T12:22:53;4.43;;;2.00;;
33926;SDS011;20485;50.992;5.550;2023-06-14T12:25:34;6.53;;;1.58;;
33926;SDS011;20485;50.992;5.550;2023-06-14T12:28:07;4.53;;;1.30;;
33926;SDS011;20485;50.992;5.550;2023-06-14T12:30:34;6.43;;;2.00;;
33926;SDS011;20485;50.992;5.550;2023-06-14T12:33:01;5.20;;;1.75;;
33926;SDS011;20485;50.992;5.550;2023-06-14T12:35:30;9.60;;;2.22;;
33926;SDS011;20485;50.992;5.550;2023-06-14T12:37:56;6.05;;;1.60;;
33926;SDS011;20485;50.992;5.550;2023-06-14T12:40:22;6.03;;;1.77;;
33926;SDS011;20485;50.992;5.550;2023-06-14T12:42:48;5.43;;;1.70;;
33926;SDS011;20485;50.992;5.550;2023-06-14T12:45:14;7.03;;;1.90;;
33926;SDS011;20485;50.992;5.550;2023-06-14T12:47:40;4.82;;;1.35;;
33926;SDS011;20485;50.992;5.550;2023-06-14T12:50:06;5.75;;;1.60;;
33926;SDS011;20485;50.992;5.550;2023-06-14T12:52:32;4.95;;;1.70;;
33926;SDS011;20485;50.992;5.550;2023-06-14T12:55:04;7.95;;;1.65;;
33926;SDS011;20485;50.992;5.550;2023-06-14T12:57:30;5.47;;;1.88;;
33926;SDS011;20485;50.992;5.550;2023-06-14T12:59:56;4.85;;;1.80;;
33926;SDS011;20485;50.992;5.550;2023-06-14T13:02:22;10.05;;;2.15;;
33926;SDS011;20485;50.992;5.550;2023-06-14T13:04:49;4.65;;;1.90;;
33926;SDS011;20485;50.992;5.550;2023-06-14T13:07:15;4.53;;;1.70;;
33926;SDS011;20485;50.992;5.550;2023-06-14T13:09:41;6.22;;;1.75;;
33926;SDS011;20485;50.992;5.550;2023-06-14T13:12:09;2.40;;;1.45;;
33926;SDS011;20485;50.992;5.550;2023-06-14T13:14:39;3.70;;;1.70;;
33926;SDS011;20485;50.992;5.550;2023-06-14T13:17:09;8.43;;;1.75;;
33926;SDS011;20485;50.992;5.550;2023-06-14T13:19:35;8.07;;;1.80;;
33926;SDS011;20485;50.992;5.550;2023-06-14T13:22:02;5.88;;;1.88;;
33926;SDS011;20485;50.992;5.550;2023-06-14T13:24:28;6.30;;;1.80;;
33926;SDS011;20485;50.992;5.550;2023-06-14T13:26:57;5.15;;;1.75;;
33926;SDS011;20485;50.992;5.550;2023-06-14T15:42:23;3.90;;;1.58;;
33926;SDS011;20485;50.992;5.550;2023-06-14T15:44:51;4.57;;;1.65;;
33926;SDS011;20485;50.992;5.550;2023-06-14T15:47:31;4.95;;;1.65;;
33926;SDS011;20485;50.992;5.550;2023-06-14T15:50:01;4.18;;;1.52;;
33926;SDS011;20485;50.992;5.550;2023-06-14T15:52:33;5.22;;;1.80;;
33926;SDS011;20485;50.992;5.550;2023-06-14T15:55:04;6.72;;;1.85;;
33926;SDS011;20485;50.992;5.550;2023-06-14T15:57:31;3.30;;;1.60;;
33926;SDS011;20485;50.992;5.550;2023-06-14T16:00:00;9.85;;;2.00;;
33926;SDS011;20485;50.992;5.550;2023-06-14T16:02:30;7.60;;;1.73;;
33926;SDS011;20485;50.992;5.550;2023-06-14T16:05:00;6.07;;;1.52;;
33926;SDS011;20485;50.992;5.550;2023-06-14T16:07:31;3.00;;;1.40;;
33926;SDS011;20485;50.992;5.550;2023-06-14T16:10:01;2.20;;;1.45;;
33926;SDS011;20485;50.992;5.550;2023-06-14T16:12:28;4.32;;;1.70;;
33926;SDS011;20485;50.992;5.550;2023-06-14T16:14:56;8.48;;;1.92;;
33926;SDS011;20485;50.992;5.550;2023-06-14T16:17:23;6.32;;;1.83;;
33926;SDS011;20485;50.992;5.550;2023-06-14T16:19:53;6.00;;;1.98;;
33926;SDS011;20485;50.992;5.550;2023-06-14T16:22:20;10.70;;;1.73;;
33926;SDS011;20485;50.992;5.550;2023-06-14T16:24:48;4.85;;;1.58;;
33926;SDS011;20485;50.992;5.550;2023-06-14T16:27:14;3.92;;;1.60;;
33926;SDS011;20485;50.992;5.550;2023-06-14T16:29:42;3.70;;;1.45;;
33926;SDS011;20485;50.992;5.550;2023-06-14T16:32:09;6.05;;;1.65;;
33926;SDS011;20485;50.992;5.550;2023-06-14T16:34:37;4.00;;;1.40;;
33926;SDS011;20485;50.992;5.550;2023-06-14T16:37:04;4.53;;;1.50;;
33926;SDS011;20485;50.992;5.550;2023-06-14T16:39:31;3.97;;;1.42;;
33926;SDS011;20485;50.992;5.550;2023-06-14T16:41:58;5.78;;;1.38;;
33926;SDS011;20485;50.992;5.550;2023-06-14T16:44:26;9.77;;;1.55;;
33926;SDS011;20485;50.992;5.550;2023-06-14T16:47:00;6.50;;;1.63;;
33926;SDS011;20485;50.992;5.550;2023-06-14T16:49:28;3.40;;;1.50;;
33926;SDS011;20485;50.992;5.550;2023-06-14T16:51:56;6.00;;;1.50;;
33926;SDS011;20485;50.992;5.550;2023-06-14T16:54:25;5.50;;;1.90;;
33926;SDS011;20485;50.992;5.550;2023-06-14T16:56:53;9.70;;;1.50;;
33926;SDS011;20485;50.992;5.550;2023-06-14T16:59:20;8.98;;;1.50;;
33926;SDS011;20485;50.992;5.550;2023-06-14T17:01:49;4.28;;;1.50;;
33926;SDS011;20485;50.992;5.550;2023-06-14T17:04:20;4.65;;;1.33;;
33926;SDS011;20485;50.992;5.550;2023-06-14T17:06:48;6.80;;;1.50;;
33926;SDS011;20485;50.992;5.550;2023-06-14T17:09:16;10.57;;;1.50;;
33926;SDS011;20485;50.992;5.550;2023-06-14T17:11:50;3.47;;;1.52;;
33926;SDS011;20485;50.992;5.550;2023-06-14T17:14:26;6.85;;;1.77;;
33926;SDS011;20485;50.992;5.550;2023-06-14T17:16:52;6.03;;;1.48;;
33926;SDS011;20485;50.992;5.550;2023-06-14T17:19:17;2.65;;;1.10;;
33926;SDS011;20485;50.992;5.550;2023-06-14T17:21:43;8.95;;;1.63;;
33926;SDS011;20485;50.992;5.550;2023-06-14T17:24:14;4.80;;;1.83;;
33926;SDS011;20485;50.992;5.550;2023-06-14T17:26:39;3.45;;;1.35;;
33926;SDS011;20485;50.992;5.550;2023-06-14T17:29:05;6.40;;;1.33;;
33926;SDS011;20485;50.992;5.550;2023-06-14T17:31:31;6.93;;;1.40;;
33926;SDS011;20485;50.992;5.550;2023-06-14T17:33:57;5.30;;;1.42;;
33926;SDS011;20485;50.992;5.550;2023-06-14T17:36:22;4.20;;;1.38;;
33926;SDS011;20485;50.992;5.550;2023-06-14T17:38:48;5.25;;;1.45;;
33926;SDS011;20485;50.992;5.550;2023-06-14T17:41:16;4.13;;;1.30;;
33926;SDS011;20485;50.992;5.550;2023-06-14T17:43:44;2.88;;;1.40;;
33926;SDS011;20485;50.992;5.550;2023-06-14T17:46:10;7.47;;;1.58;;
33926;SDS011;20485;50.992;5.550;2023-06-14T22:07:31;3.78;;;2.17;;
33926;SDS011;20485;50.992;5.550;2023-06-14T22:09:58;5.15;;;2.15;;
33926;SDS011;20485;50.992;5.550;2023-06-14T22:12:24;5.43;;;1.83;;
33926;SDS011;20485;50.992;5.550;2023-06-14T22:14:50;4.00;;;2.40;;
33926;SDS011;20485;50.992;5.550;2023-06-14T22:17:17;4.65;;;2.22;;
33926;SDS011;20485;50.992;5.550;2023-06-14T22:19:46;6.45;;;2.70;;
33926;SDS011;20485;50.992;5.550;2023-06-14T22:22:16;12.90;;;2.83;;
33926;SDS011;20485;50.992;5.550;2023-06-14T22:24:50;3.22;;;2.20;;
33926;SDS011;20485;50.992;5.550;2023-06-14T22:27:17;5.38;;;2.60;;
33926;SDS011;20485;50.992;5.550;2023-06-14T22:29:46;4.10;;;2.60;;
33926;SDS011;20485;50.992;5.550;2023-06-14T22:32:21;6.35;;;2.10;;
33926;SDS011;20485;50.992;5.550;2023-06-14T22:34:51;3.50;;;2.30;;
33926;SDS011;20485;50.992;5.550;2023-06-14T22:37:17;4.10;;;2.13;;
33926;SDS011;20485;50.992;5.550;2023-06-14T22:39:44;4.05;;;2.53;;
33926;SDS011;20485;50.992;5.550;2023-06-14T22:42:10;4.32;;;2.40;;
33926;SDS011;20485;50.992;5.550;2023-06-14T22:44:38;8.85;;;2.55;;
33926;SDS011;20485;50.992;5.550;2023-06-14T22:47:05;7.07;;;2.63;;
33926;SDS011;20485;50.992;5.550;2023-06-14T22:49:35;5.75;;;2.70;;
33926;SDS011;20485;50.992;5.550;2023-06-14T22:52:04;3.75;;;2.78;;
33926;SDS011;20485;50.992;5.550;2023-06-14T22:54:31;5.50;;;2.55;;
33926;SDS011;20485;50.992;5.550;2023-06-14T22:56:57;6.30;;;2.22;;
33926;SDS011;20485;50.992;5.550;2023-06-14T22:59:23;4.30;;;2.38;;
33926;SDS011;20485;50.992;5.550;2023-06-14T23:01:50;7.60;;;2.97;;
33926;SDS011;20485;50.992;5.550;2023-06-14T23:04:15;5.90;;;2.70;;
33926;SDS011;20485;50.992;5.550;2023-06-14T23:06:42;11.50;;;3.53;;
33926;SDS011;20485;50.992;5.550;2023-06-14T23:09:09;2.58;;;2.08;;
33926;SDS011;20485;50.992;5.550;2023-06-14T23:11:36;4.80;;;2.65;;
33926;SDS011;20485;50.992;5.550;2023-06-14T23:14:03;6.93;;;2.83;;
33926;SDS011;20485;50.992;5.550;2023-06-14T23:16:29;4.43;;;2.38;;
33926;SDS011;20485;50.992;5.550;2023-06-14T23:18:56;8.30;;;2.60;;
33926;SDS011;20485;50.992;5.550;2023-06-14T23:21:21;3.17;;;2.60;;
33926;SDS011;20485;50.992;5.550;2023-06-14T23:23:47;4.75;;;2.40;;
33926;SDS011;20485;50.992;5.550;2023-06-14T23:26:15;5.38;;;2.65;;
33926;SDS011;20485;50.992;5.550;2023-06-14T23:28:41;6.28;;;2.60;;
33926;SDS011;20485;50.992;5.550;2023-06-14T23:31:18;4.20;;;2.63;;
33926;SDS011;20485;50.992;5.550;2023-06-14T23:33:45;6.72;;;2.53;;
33926;SDS011;20485;50.992;5.550;2023-06-14T23:36:13;8.10;;;3.05;;
33926;SDS011;20485;50.992;5.550;2023-06-14T23:38:40;7.57;;;2.60;;
33926;SDS011;20485;50.992;5.550;2023-06-14T23:41:12;3.72;;;2.58;;
33926;SDS011;20485;50.992;5.550;2023-06-14T23:43:40;2.97;;;2.53;;
33926;SDS011;20485;50.992;5.550;2023-06-14T23:46:10;8.05;;;2.72;;
33926;SDS011;20485;50.992;5.550;2023-06-14T23:48:37;5.35;;;2.55;;
33926;SDS011;20485;50.992;5.550;2023-06-14T23:51:03;5.22;;;2.15;;
33926;SDS011;20485;50.992;5.550;2023-06-14T23:53:30;6.10;;;2.60;;
33926;SDS011;20485;50.992;5.550;2023-06-14T23:55:58;7.90;;;3.00;;
33926;SDS011;20485;50.992;5.550;2023-06-14T23:58:26;4.68;;;2.65;;
